Time;durP1;ratioP1;P1;durP2;ratioP2;P2;SDS_P1;SDS_P2;PMS_P1;PMS_P2;Temp;Humidity;BMP_temperature;BMP_pressure;BME280_temperature;BME280_humidity;BME280_pressure;Samples;Min_cycle;Max_cycle;Signal;HPM_P1;HPM_P2
2023/08/02 00:00:39;;;;;;;6.35;3.22;;;;;;;23.11;60.68;98514.97;6282336;22;20030;-86
2023/08/02 00:03:07;;;;;;;4.68;3.30;;;;;;;23.16;60.80;98509.97;6257449;22;19995;-87
2023/08/02 00:05:33;;;;;;;4.38;3.13;;;;;;;23.06;60.64;98496.88;6231550;22;20003;-86
2023/08/02 00:07:59;;;;;;;8.15;3.67;;;;;;;23.14;61.01;98506.78;6257530;22;20003;-86
2023/08/02 00:10:25;;;;;;;6.75;3.13;;;;;;;23.28;60.57;98511.66;6232045;22;20002;-86
2023/08/02 00:12:52;;;;;;;5.78;3.78;;;;;;;23.12;60.88;98494.63;6256180;22;20082;-86
2023/08/02 00:15:19;;;;;;;7.38;3.60;;;;;;;23.22;60.53;98498.63;6256561;22;20010;-86
2023/08/02 00:17:45;;;;;;;5.68;3.40;;;;;;;23.24;59.67;98493.56;6282159;22;20064;-86
2023/08/02 00:20:11;;;;;;;3.83;3.20;;;;;;;23.23;60.10;98479.03;6257577;22;20025;-86
2023/08/02 00:22:37;;;;;;;5.15;3.80;;;;;;;23.40;59.38;98494.13;6230691;22;20078;-86
2023/08/02 00:25:03;;;;;;;7.90;3.80;;;;;;;23.48;59.03;98486.75;6257401;22;20041;-86
2023/08/02 00:27:28;;;;;;;6.35;4.00;;;;;;;23.56;58.67;98488.41;6231667;22;20007;-86
2023/08/02 00:29:54;;;;;;;7.65;3.85;;;;;;;23.56;58.50;98478.22;6232006;22;19999;-86
2023/08/02 00:32:19;;;;;;;5.50;3.63;;;;;;;23.67;58.42;98494.81;6232422;22;20347;-86
2023/08/02 00:34:45;;;;;;;4.45;3.47;;;;;;;23.63;58.64;98490.44;6257308;22;20037;-86
2023/08/02 00:37:11;;;;;;;5.00;3.90;;;;;;;23.72;58.62;98488.16;6230862;22;20025;-86
2023/08/02 00:39:38;;;;;;;5.30;3.38;;;;;;;23.85;58.24;98502.47;6231363;22;20426;-87
2023/08/02 00:42:04;;;;;;;4.72;3.63;;;;;;;23.89;58.36;98506.06;6256914;22;19995;-86
2023/08/02 00:44:30;;;;;;;5.38;3.47;;;;;;;23.84;58.70;98495.38;6257458;22;20019;-85
2023/08/02 00:46:56;;;;;;;6.93;3.90;;;;;;;23.86;58.12;98493.81;6257022;22;20022;-86
2023/08/02 00:49:24;;;;;;;4.63;3.55;;;;;;;23.85;58.09;98483.22;6231686;22;20007;-86
2023/08/02 00:51:50;;;;;;;15.57;4.25;;;;;;;23.90;58.08;98496.63;6256952;22;19999;-86
2023/08/02 00:54:16;;;;;;;4.10;3.45;;;;;;;23.79;58.17;98491.81;6282110;22;20002;-87
2023/08/02 00:56:42;;;;;;;5.88;4.00;;;;;;;23.85;58.04;98481.25;6281502;22;20437;-87
2023/08/02 00:59:07;;;;;;;7.20;4.22;;;;;;;23.96;57.98;98501.38;6231770;22;20003;-87
2023/08/02 01:01:32;;;;;;;6.55;3.30;;;;;;;23.94;58.10;98489.97;6257464;22;20430;-87
2023/08/02 01:03:59;;;;;;;5.05;3.40;;;;;;;23.94;57.94;98487.22;6231529;22;20030;-87
2023/08/02 01:06:38;;;;;;;4.68;3.72;;;;;;;24.02;58.22;98504.59;6257576;22;19995;-86
2023/08/02 01:09:07;;;;;;;4.53;3.33;;;;;;;23.93;57.86;98493.13;6256847;22;20438;-87
2023/08/02 01:11:40;;;;;;;4.78;3.60;;;;;;;23.87;57.83;98483.66;6231467;22;20350;-86
2023/08/02 01:14:07;;;;;;;5.15;4.18;;;;;;;23.91;58.11;98489.97;6257920;22;20453;-86
2023/08/02 01:16:33;;;;;;;4.05;3.60;;;;;;;23.91;57.97;98485.25;6231321;22;20002;-86
2023/08/02 01:19:08;;;;;;;4.47;3.53;;;;;;;23.94;58.18;98500.97;6257168;22;20007;-86
2023/08/02 01:21:33;;;;;;;9.05;4.43;;;;;;;23.83;58.33;98486.34;6257763;22;19995;-86
2023/08/02 01:24:00;;;;;;;4.25;3.70;;;;;;;23.87;58.19;98492.66;6231258;22;20373;-87
2023/08/02 01:26:27;;;;;;;5.70;3.85;;;;;;;23.86;58.32;98496.56;6256428;22;19999;-86
2023/08/02 01:28:55;;;;;;;6.45;3.70;;;;;;;23.78;58.95;98487.50;6256021;22;20034;-86
2023/08/02 01:31:20;;;;;;;4.82;3.70;;;;;;;23.77;58.33;98485.91;6282143;22;20003;-86
2023/08/02 01:33:52;;;;;;;6.68;4.00;;;;;;;23.88;58.22;98493.47;6230750;22;20038;-86
2023/08/02 01:36:18;;;;;;;6.47;3.90;;;;;;;23.79;58.44;98482.78;6231869;22;20073;-87
2023/08/02 01:38:44;;;;;;;7.15;4.00;;;;;;;23.82;58.48;98482.00;6256769;22;20031;-87
2023/08/02 01:41:09;;;;;;;4.43;3.70;;;;;;;23.77;58.36;98479.63;6257845;22;19999;-87
2023/08/02 01:43:35;;;;;;;6.18;3.70;;;;;;;23.77;58.34;98479.63;6230976;22;20019;-87
2023/08/02 01:46:01;;;;;;;5.10;3.90;;;;;;;23.82;58.12;98498.50;6231329;22;19999;-86
2023/08/02 01:48:27;;;;;;;6.60;3.65;;;;;;;23.77;58.12;98483.16;6255872;22;20439;-86
2023/08/02 01:50:56;;;;;;;5.80;4.10;;;;;;;23.77;58.23;98485.91;6230779;22;20007;-86
2023/08/02 01:53:22;;;;;;;4.38;3.95;;;;;;;23.73;58.38;98490.53;6255961;22;20003;-86
2023/08/02 01:55:48;;;;;;;4.38;3.97;;;;;;;23.80;58.42;98500.84;6307207;22;20003;-86
2023/08/02 01:58:13;;;;;;;4.85;3.90;;;;;;;23.74;58.57;98494.06;6231289;22;20003;-86
2023/08/02 02:00:41;;;;;;;5.45;4.15;;;;;;;23.74;58.73;98491.31;6256429;22;20003;-86
2023/08/02 02:03:06;;;;;;;4.15;3.72;;;;;;;23.76;57.97;98494.50;6231829;22;20003;-86
2023/08/02 02:05:32;;;;;;;4.45;3.90;;;;;;;23.72;58.49;98488.16;6231091;22;20057;-86
2023/08/02 02:07:57;;;;;;;5.53;3.83;;;;;;;23.74;58.52;98486.63;6256446;22;19999;-86
2023/08/02 02:10:23;;;;;;;7.43;4.05;;;;;;;23.75;58.08;98487.44;6254924;22;20010;-86
2023/08/02 02:12:49;;;;;;;8.32;4.40;;;;;;;23.75;57.67;98485.47;6256924;22;20120;-87
2023/08/02 02:15:14;;;;;;;6.70;3.72;;;;;;;23.76;58.08;98484.34;6255280;22;20003;-86
2023/08/02 02:17:42;;;;;;;4.43;3.80;;;;;;;23.79;57.78;98489.06;6231008;22;20007;-86
2023/08/02 02:20:10;;;;;;;6.85;4.25;;;;;;;23.71;58.23;98481.88;6280654;22;20398;-87
2023/08/02 02:22:36;;;;;;;6.40;4.10;;;;;;;23.77;58.46;98496.91;6256884;22;20002;-86
2023/08/02 02:25:03;;;;;;;5.00;4.05;;;;;;;23.77;58.09;98498.88;6256662;22;20003;-86
2023/08/02 02:27:29;;;;;;;4.90;4.30;;;;;;;23.79;58.40;98504.78;6256504;22;20021;-86
2023/08/02 02:29:56;;;;;;;6.07;4.25;;;;;;;23.64;58.24;98490.06;6255719;22;19999;-87
2023/08/02 02:32:22;;;;;;;4.45;4.05;;;;;;;23.69;58.39;98497.97;6308714;22;20003;-85
2023/08/02 02:34:50;;;;;;;6.00;4.47;;;;;;;23.60;58.29;98487.28;6256152;22;20006;-86
2023/08/02 02:37:16;;;;;;;5.63;4.25;;;;;;;23.67;58.00;98494.81;6256389;22;20003;-86
2023/08/02 02:39:45;;;;;;;4.80;3.85;;;;;;;23.67;58.00;98500.28;6282274;22;20003;-87
2023/08/02 02:42:11;;;;;;;7.03;4.13;;;;;;;23.70;58.06;98498.75;6282745;22;19996;-86
2023/08/02 02:44:45;;;;;;;5.15;4.03;;;;;;;23.66;58.29;98485.00;6281495;22;20343;-87
2023/08/02 02:47:10;;;;;;;4.93;3.97;;;;;;;23.59;58.41;98495.91;6231377;22;19999;-84
2023/08/02 02:49:37;;;;;;;5.45;4.25;;;;;;;23.67;58.42;98505.00;6230963;22;20003;-87
2023/08/02 02:52:03;;;;;;;4.90;3.70;;;;;;;23.61;58.52;98501.81;6280925;22;20007;-86
2023/08/02 02:54:29;;;;;;;5.65;4.47;;;;;;;23.64;58.47;98503.00;6256127;22;20009;-87
2023/08/02 02:56:56;;;;;;;6.32;4.05;;;;;;;23.65;58.42;98505.38;6255131;22;20353;-86
2023/08/02 02:59:23;;;;;;;5.43;4.18;;;;;;;23.65;58.39;98499.88;6282154;22;19999;-86
2023/08/02 03:01:49;;;;;;;4.47;4.05;;;;;;;23.70;58.45;98507.81;6250547;22;20153;-86
2023/08/02 03:04:17;;;;;;;5.57;3.75;;;;;;;23.69;58.17;98502.69;6257400;22;20007;-86
2023/08/02 03:06:43;;;;;;;7.25;4.20;;;;;;;23.68;58.37;98512.88;6311413;22;20053;-86
2023/08/02 03:09:08;;;;;;;5.00;4.50;;;;;;;23.69;58.15;98508.19;6232716;22;20400;-86
2023/08/02 03:11:34;;;;;;;5.15;4.13;;;;;;;23.72;58.23;98519.22;6257037;22;20011;-88
2023/08/02 03:14:01;;;;;;;6.70;4.78;;;;;;;23.66;58.13;98495.97;6256205;22;20006;-85
2023/08/02 03:16:27;;;;;;;6.25;4.40;;;;;;;23.70;58.11;98504.25;6231602;22;20086;-86
2023/08/02 03:18:55;;;;;;;4.53;3.95;;;;;;;23.74;58.18;98516.88;6282161;22;20209;-86
2023/08/02 03:21:21;;;;;;;6.55;4.15;;;;;;;23.78;58.08;98512.22;6283422;22;19992;-86
2023/08/02 03:23:46;;;;;;;7.10;4.50;;;;;;;23.79;57.58;98515.75;6257776;22;20404;-87
2023/08/02 03:26:12;;;;;;;6.00;4.43;;;;;;;23.78;57.69;98522.41;6258117;22;20003;-87
2023/08/02 03:28:37;;;;;;;5.35;4.50;;;;;;;23.79;57.43;98521.25;6257519;22;20021;-86
2023/08/02 03:31:06;;;;;;;5.03;4.20;;;;;;;23.80;57.37;98518.16;6257609;22;20026;-87
2023/08/02 03:33:33;;;;;;;6.05;4.55;;;;;;;23.83;57.46;98513.84;6283372;22;20006;-87
2023/08/02 03:36:00;;;;;;;6.97;4.40;;;;;;;23.93;57.50;98526.13;6256588;22;20006;-88
2023/08/02 03:38:25;;;;;;;9.35;4.68;;;;;;;23.86;57.56;98510.31;6232299;22;20031;-87
2023/08/02 03:40:52;;;;;;;5.57;4.50;;;;;;;23.84;58.01;98500.88;6231622;22;20054;-87
2023/08/02 03:43:18;;;;;;;6.10;4.28;;;;;;;23.87;57.85;98511.13;6256958;22;20018;-87
2023/08/02 03:45:43;;;;;;;5.95;4.38;;;;;;;23.93;57.03;98520.63;6284011;22;19999;-88
2023/08/02 03:48:09;;;;;;;8.52;4.40;;;;;;;23.93;57.55;98520.63;6258252;22;20052;-87
2023/08/02 03:50:38;;;;;;;8.05;4.70;;;;;;;23.94;57.00;98517.47;6258301;22;20007;-87
2023/08/02 03:53:03;;;;;;;6.53;4.35;;;;;;;23.91;57.43;98512.75;6234266;22;20046;-87
2023/08/02 03:55:32;;;;;;;12.32;6.43;;;;;;;23.94;57.13;98500.19;6257754;22;20541;-87
2023/08/02 03:57:58;;;;;;;7.93;5.80;;;;;;;23.87;56.85;98486.38;6257224;22;20029;-88
2023/08/02 04:00:25;;;;;;;8.90;5.10;;;;;;;24.10;57.34;98524.69;6256420;22;20430;-87
2023/08/02 04:02:56;;;;;;;7.18;4.75;;;;;;;23.93;57.31;98488.41;6282677;22;19991;-87
2023/08/02 04:08:51;;;;;;;5.95;4.75;;;;;;;24.01;56.86;98497.53;6189233;23;20105;-89
2023/08/02 04:11:16;;;;;;;6.82;4.70;;;;;;;24.12;56.29;98503.88;6135723;23;19985;-87
2023/08/02 04:13:43;;;;;;;10.70;9.40;;;;;;;24.18;56.34;98507.09;6208924;22;20006;-87
2023/08/02 04:16:14;;;;;;;7.70;4.45;;;;;;;24.17;56.24;98499.97;6280659;22;20432;-86
2023/08/02 04:18:40;;;;;;;8.00;4.75;;;;;;;24.35;56.58;98516.63;6231895;22;20002;-86
2023/08/02 04:21:14;;;;;;;8.23;4.53;;;;;;;24.39;55.88;98509.97;6230975;22;20068;-87
2023/08/02 04:23:40;;;;;;;8.20;4.60;;;;;;;24.49;55.88;98513.22;6235312;22;20003;-87
2023/08/02 04:26:14;;;;;;;9.43;5.05;;;;;;;24.35;55.78;98480.88;6228961;22;20520;-87
2023/08/02 04:28:40;;;;;;;7.70;5.07;;;;;;;24.47;55.58;98499.03;6230549;22;19999;-86
2023/08/02 04:31:12;;;;;;;5.57;4.78;;;;;;;24.52;55.25;98491.22;6231630;22;19999;-88
2023/08/02 04:33:38;;;;;;;10.07;5.55;;;;;;;24.50;56.34;98493.56;6256836;22;20321;-89
2023/08/02 04:36:03;;;;;;;10.52;5.40;;;;;;;24.77;55.04;98507.88;6257048;22;20010;-87
2023/08/02 04:38:33;;;;;;;10.23;5.30;;;;;;;24.84;55.11;98511.84;6229714;22;20046;-88
2023/08/02 04:41:04;;;;;;;6.38;5.22;;;;;;;24.92;54.34;98502.44;6282140;22;20025;-87
2023/08/02 04:43:30;;;;;;;8.07;5.38;;;;;;;25.01;54.55;98500.16;6227988;22;20451;-86
2023/08/02 04:46:09;;;;;;;14.38;5.53;;;;;;;25.06;54.39;98501.75;6256033;22;20011;-89
2023/08/02 04:48:40;;;;;;;8.80;4.90;;;;;;;25.05;54.59;98500.16;6282298;22;20062;-87
2023/08/02 04:51:09;;;;;;;9.95;5.53;;;;;;;25.28;53.98;98516.44;6256583;22;19995;-89
2023/08/02 04:53:36;;;;;;;6.72;5.30;;;;;;;25.33;54.18;98513.28;6257733;22;20481;-88
2023/08/02 04:56:01;;;;;;;11.00;5.35;;;;;;;25.27;54.24;98509.31;6282485;22;20002;-89
2023/08/02 04:59:15;;;;;;;8.30;5.18;;;;;;;25.33;53.83;98516.81;6230840;22;19999;-91
2023/08/02 05:01:43;;;;;;;10.32;6.18;;;;;;;25.41;53.89;98514.88;6277381;22;19999;-90
2023/08/02 05:04:43;;;;;;;12.40;6.00;;;;;;;25.42;53.54;98519.22;6238635;22;20054;-95
2023/08/02 05:07:47;;;;;;;13.65;5.38;;;;;;;25.26;54.70;98489.25;6243494;22;20011;-96
2023/08/02 05:10:46;;;;;;;8.90;5.10;;;;;;;25.38;53.89;98494.41;6163456;23;20064;-92
2023/08/02 05:13:18;;;;;;;6.90;5.45;;;;;;;25.67;53.23;98532.28;6153060;23;20017;-96
2023/08/02 05:15:45;;;;;;;10.20;7.43;;;;;;;25.64;52.95;98499.97;6229729;22;20000;-92
2023/08/02 05:18:36;;;;;;;17.10;6.32;;;;;;;25.93;52.81;98531.19;6252726;22;20025;-92
2023/08/02 05:24:34;;;;;;;;;;;;;;;26.25;51.93;98538.69;6181598;23;19997;-90
2023/08/02 05:27:04;;;;;;;7.93;5.90;;;;;;;26.20;52.35;98521.34;6135375;23;19953;-89
2023/08/02 05:33:07;;;;;;;;;;;;;;;26.40;50.66;98546.56;6078905;23;20409;-94
2023/08/02 05:35:36;;;;;;;12.47;7.43;;;;;;;26.47;50.51;98531.19;6079348;23;19957;-94
2023/08/02 05:38:02;;;;;;;10.07;5.68;;;;;;;26.65;49.73;98537.50;6111776;23;20334;-87
2023/08/02 05:40:32;;;;;;;13.38;9.63;;;;;;;26.70;49.84;98519.75;6098300;23;20009;-89
2023/08/02 05:42:59;;;;;;;11.05;6.28;;;;;;;26.84;50.38;98536.28;6101508;23;19998;-87
2023/08/02 05:45:24;;;;;;;7.85;6.10;;;;;;;26.83;50.09;98539.44;6126832;23;20032;-89
2023/08/02 05:47:52;;;;;;;14.80;6.38;;;;;;;26.81;50.01;98543.41;6104185;23;20013;-88
2023/08/02 05:50:18;;;;;;;9.88;6.90;;;;;;;26.80;51.00;98539.03;6209269;22;20534;-89
2023/08/02 05:52:45;;;;;;;9.52;7.30;;;;;;;26.86;50.31;98541.41;6226974;22;20007;-88
2023/08/02 05:55:11;;;;;;;12.32;6.75;;;;;;;26.83;49.87;98542.97;6233167;22;20023;-95
2023/08/02 05:57:48;;;;;;;12.25;9.18;;;;;;;26.87;49.78;98549.28;6233179;22;20012;-93
2023/08/02 06:00:21;;;;;;;8.05;6.63;;;;;;;26.62;50.16;98521.72;6215208;22;20000;-96
2023/08/02 06:03:09;;;;;;;11.18;6.05;;;;;;;26.89;49.81;98537.84;6257348;22;20051;-96
2023/08/02 06:06:15;;;;;;;10.80;5.93;;;;;;;26.85;49.11;98512.97;6296034;22;20015;-94
2023/08/02 06:08:43;;;;;;;15.88;7.65;;;;;;;27.07;49.26;98524.75;6253788;22;20003;-96
2023/08/02 06:11:11;;;;;;;13.50;7.55;;;;;;;27.36;49.08;98544.03;6244209;22;20015;-96
2023/08/02 06:14:03;;;;;;;12.18;6.35;;;;;;;27.25;49.41;98518.38;6273471;22;20405;-95
2023/08/02 06:16:55;;;;;;;;;;;;;;;;;;;;;
2023/08/02 06:27:24;;;;;;;7.97;5.80;;;;;;;28.07;46.68;98526.22;6325729;22;20027;-95
2023/08/02 06:30:10;;;;;;;8.80;6.35;;;;;;;28.14;46.53;98509.59;6252068;23;20000;-87
2023/08/02 06:32:38;;;;;;;17.90;13.50;;;;;;;28.37;46.34;98528.38;6232039;23;20076;-88
2023/08/02 06:35:13;;;;;;;12.23;7.15;;;;;;;28.39;46.78;98530.72;6182313;23;20004;-89
2023/08/02 06:37:39;;;;;;;11.50;5.85;;;;;;;28.29;47.24;98513.00;6190872;23;20004;-90
2023/08/02 06:40:05;;;;;;;10.38;5.70;;;;;;;28.22;46.96;98524.13;6187174;23;20000;-90
2023/08/02 06:42:33;;;;;;;8.95;5.43;;;;;;;28.35;46.70;98516.91;6187962;23;19992;-92
2023/08/02 06:45:22;;;;;;;11.63;8.23;;;;;;;28.45;47.09;98525.53;6155317;23;20053;-90
2023/08/02 06:58:38;;;;;;;11.88;5.60;;;;;;;29.65;44.04;98538.44;6327264;22;20045;-91
2023/08/02 07:01:32;;;;;;;6.18;4.80;;;;;;;29.39;44.03;98526.91;6274522;22;20031;-91
2023/08/02 07:03:58;;;;;;;8.32;5.32;;;;;;;29.49;44.87;98527.97;6209150;23;20000;-95
2023/08/02 07:06:26;;;;;;;6.07;5.43;;;;;;;29.67;44.51;98551.91;6188073;23;20015;-95
2023/08/02 07:09:20;;;;;;;6.75;5.55;;;;;;;30.02;43.34;98556.19;6207606;23;20007;-95
2023/08/02 07:22:13;;;;;;;;;;;;;;;30.75;42.45;98545.47;6197646;23;20039;-96
2023/08/02 07:24:39;;;;;;;9.55;6.72;;;;;;;30.77;41.58;98537.47;6190444;23;19927;-88
2023/08/02 07:27:17;;;;;;;;;;;;;;;;;;;;;
2023/08/02 07:29:49;;;;;;;8.93;5.63;;;;;;;30.75;42.19;98526.78;6208772;23;20031;-88
2023/08/02 07:32:18;;;;;;;10.95;6.15;;;;;;;30.39;42.76;98529.44;6177747;23;20004;-89
2023/08/02 07:34:44;;;;;;;13.10;6.95;;;;;;;30.26;43.28;98542.31;6204932;22;20074;-88
2023/08/02 07:37:17;;;;;;;9.80;6.43;;;;;;;30.30;43.78;98545.84;6258122;22;20101;-91
2023/08/02 07:39:56;;;;;;;10.27;6.78;;;;;;;30.42;43.21;98550.78;6238640;22;20006;-89
2023/08/02 07:47:30;;;;;;;6.80;5.53;;;;;;;30.44;43.46;98569.81;6100739;23;20014;-90
2023/08/02 07:50:16;;;;;;;7.25;5.10;;;;;;;30.25;43.07;98551.88;6076326;23;19998;-90
2023/08/02 07:52:44;;;;;;;9.18;5.32;;;;;;;30.34;41.71;98560.47;6081317;23;20031;-89
2023/08/02 07:55:12;;;;;;;6.43;5.03;;;;;;;30.09;41.16;98527.50;6152097;23;20077;-90
2023/08/02 07:57:38;;;;;;;7.30;4.82;;;;;;;30.35;41.22;98537.03;6214914;22;20019;-91
2023/08/02 08:00:07;;;;;;;8.55;5.30;;;;;;;30.54;41.30;98535.53;6209075;22;20027;-90
2023/08/02 08:02:32;;;;;;;7.60;4.53;;;;;;;30.90;40.43;98569.03;6206063;22;20023;-89
2023/08/02 08:05:07;;;;;;;5.80;5.03;;;;;;;30.91;40.84;98547.59;6230274;22;20006;-90
2023/08/02 08:08:13;;;;;;;5.60;4.72;;;;;;;30.95;41.27;98554.63;6206696;22;20085;-90
2023/08/02 08:10:40;;;;;;;10.02;7.63;;;;;;;30.87;41.18;98552.41;6239624;22;20070;-90
2023/08/02 08:13:31;;;;;;;8.60;5.30;;;;;;;30.66;41.53;98546.03;6231073;22;19996;-89
2023/08/02 08:15:57;;;;;;;10.05;5.80;;;;;;;30.73;41.17;98554.22;6231103;22;20003;-86
2023/08/02 08:18:22;;;;;;;10.40;5.72;;;;;;;30.94;41.15;98558.66;6201641;22;20510;-90
2023/08/02 08:20:48;;;;;;;6.75;4.72;;;;;;;30.85;39.25;98577.06;6231904;22;20000;-88
2023/08/02 08:23:14;;;;;;;5.25;4.35;;;;;;;30.87;38.23;98566.28;6232160;22;20012;-88
2023/08/02 08:25:39;;;;;;;5.60;4.53;;;;;;;30.76;37.59;98552.59;6213270;22;20442;-89
2023/08/02 08:28:08;;;;;;;4.97;4.00;;;;;;;30.87;35.87;98569.06;6207596;22;19980;-88
2023/08/02 08:30:37;;;;;;;5.38;4.60;;;;;;;30.82;35.56;98565.56;6205111;22;20000;-86
2023/08/02 08:33:10;;;;;;;4.68;4.20;;;;;;;31.00;36.04;98583.94;6209639;22;20042;-92
2023/08/02 08:35:35;;;;;;;4.43;4.03;;;;;;;30.87;36.21;98561.53;6209102;22;19999;-90
2023/08/02 08:38:02;;;;;;;7.25;4.45;;;;;;;30.99;36.61;98560.13;6206765;22;20000;-91
2023/08/02 08:40:27;;;;;;;6.80;4.63;;;;;;;30.98;37.30;98566.91;6206601;22;20000;-87
2023/08/02 08:43:57;;;;;;;;;;;;;;;;;;;;;
2023/08/02 08:47:11;;;;;;;5.30;4.80;;;;;;;30.98;36.30;98558.56;6286130;22;20041;-88
2023/08/02 08:49:40;;;;;;;6.10;4.53;;;;;;;31.01;35.86;98577.97;6211750;23;20008;-96
2023/08/02 08:52:43;;;;;;;4.60;4.15;;;;;;;31.11;35.08;98584.53;6193944;23;20012;-96
2023/08/02 08:55:14;;;;;;;6.05;4.38;;;;;;;30.98;35.09;98572.47;6261019;22;20012;-86
2023/08/02 08:58:40;;;;;;;5.13;4.10;;;;;;;31.24;35.64;98583.91;6193000;23;20025;-86
2023/08/02 09:04:32;;;;;;;6.07;4.40;;;;;;;31.26;34.24;98562.78;6152937;23;20002;-88
2023/08/02 09:07:07;;;;;;;3.90;3.50;;;;;;;31.17;34.24;98557.78;6171336;23;20048;-89
2023/08/02 09:09:35;;;;;;;4.97;4.07;;;;;;;31.31;34.30;98576.19;6185300;23;20008;-90
2023/08/02 09:12:04;;;;;;;6.80;3.83;;;;;;;31.25;34.56;98575.09;6167913;23;20438;-90
2023/08/02 09:14:38;;;;;;;4.65;3.90;;;;;;;31.35;33.83;98573.31;6144637;23;20213;-89
2023/08/02 09:17:15;;;;;;;5.57;3.90;;;;;;;31.27;34.51;98560.78;6190952;23;20004;-89
2023/08/02 09:19:40;;;;;;;6.70;4.20;;;;;;;31.66;34.63;98581.47;6104387;23;20013;-88
2023/08/02 09:25:23;;;;;;;5.38;4.63;;;;;;;31.89;33.49;98581.34;6165849;22;20034;-91
2023/08/02 09:31:21;;;;;;;6.85;4.38;;;;;;;31.83;32.93;98594.19;6261716;22;20022;-96
2023/08/02 09:34:23;;;;;;;6.65;4.45;;;;;;;31.72;33.71;98565.81;6247862;22;20062;-94
2023/08/02 09:49:46;;;;;;;3.92;3.50;;;;;;;32.43;29.98;98558.56;6255371;22;20004;-95
2023/08/02 09:52:35;;;;;;;5.38;3.58;;;;;;;32.51;30.64;98572.34;6232715;22;20004;-96
2023/08/02 09:55:00;;;;;;;4.70;3.75;;;;;;;32.76;29.81;98592.00;6232418;22;20404;-88
2023/08/02 09:57:34;;;;;;;5.70;4.18;;;;;;;32.92;29.49;98585.63;6203511;22;20041;-89
2023/08/02 10:00:04;;;;;;;5.05;3.53;;;;;;;32.80;28.89;98575.97;6228575;22;20052;-89
2023/08/02 10:02:29;;;;;;;4.57;4.13;;;;;;;32.93;30.13;98578.03;6229091;22;20011;-90
2023/08/02 10:12:14;;;;;;;6.97;5.97;;;;;;;32.81;30.05;98599.09;6281537;22;20069;-92
2023/08/02 10:14:54;;;;;;;4.70;3.33;;;;;;;32.82;29.16;98600.63;6259406;22;19999;-91
2023/08/02 10:17:28;;;;;;;3.90;3.38;;;;;;;32.77;29.14;98593.59;6206800;22;20015;-91
2023/08/02 10:20:02;;;;;;;3.42;3.10;;;;;;;32.60;29.02;98583.66;6209774;22;20003;-90
2023/08/02 10:22:29;;;;;;;5.78;2.83;;;;;;;32.59;29.13;98576.53;6205383;22;20378;-90
2023/08/02 10:24:55;;;;;;;3.80;3.20;;;;;;;32.66;29.81;98573.56;6227831;22;20052;-89
2023/08/02 10:27:20;;;;;;;4.25;3.13;;;;;;;32.97;29.93;98595.47;6203685;22;20023;-91
2023/08/02 10:30:06;;;;;;;6.38;4.90;;;;;;;32.95;29.13;98593.09;6233482;22;19999;-91
2023/08/02 10:33:13;;;;;;;3.70;3.10;;;;;;;32.95;29.37;98578.38;6234332;22;20003;-92
2023/08/02 10:36:06;;;;;;;3.40;2.80;;;;;;;33.12;29.03;98582.72;6234027;22;20004;-96
2023/08/02 10:38:46;;;;;;;5.07;3.65;;;;;;;33.32;28.45;98598.53;6206598;22;19999;-96
2023/08/02 10:45:02;;;;;;;5.55;2.83;;;;;;;33.27;27.94;98590.69;6217561;22;20015;-95
2023/08/02 10:47:32;;;;;;;3.35;2.70;;;;;;;33.29;28.09;98589.03;6261878;22;19996;-95
2023/08/02 10:50:18;;;;;;;3.65;2.72;;;;;;;33.18;27.79;98585.75;6234223;22;20106;-95
2023/08/02 10:53:06;;;;;;;4.07;2.55;;;;;;;33.25;28.22;98579.22;6207641;22;20051;-96
2023/08/02 10:55:33;;;;;;;6.28;2.78;;;;;;;33.21;28.34;98577.28;6237660;22;20003;-96
2023/08/02 11:04:50;;;;;;;5.03;2.67;;;;;;;32.37;28.90;98581.84;6286052;22;20378;-95
2023/08/02 11:14:27;;;;;;;8.90;2.85;;;;;;;32.47;29.13;98568.88;6091498;23;20019;-96
2023/08/02 11:20:24;;;;;;;3.70;2.75;;;;;;;31.87;28.86;98577.41;6290824;22;20000;-95
2023/08/02 11:22:55;;;;;;;3.40;2.50;;;;;;;31.84;29.44;98573.50;6242381;22;20007;-96
2023/08/02 11:25:47;;;;;;;5.55;2.50;;;;;;;31.91;29.28;98570.53;6250443;22;20010;-95
2023/08/02 11:29:06;;;;;;;3.08;2.58;;;;;;;32.09;29.71;98591.69;6263571;22;20011;-96
2023/08/02 11:44:32;;;;;;;3.13;2.63;;;;;;;32.10;29.63;98602.34;6360517;22;20019;-96
2023/08/02 11:47:18;;;;;;;3.90;2.83;;;;;;;31.82;29.17;98593.41;6331579;22;20023;-96
2023/08/02 11:54:31;;;;;;;5.82;3.03;;;;;;;31.95;28.80;98618.59;6287503;22;20033;-92
2023/08/02 11:56:52;;;;;;;3.53;2.40;;;;;;;31.79;28.32;98587.91;6176432;22;20005;-94
2023/08/02 11:59:21;;;;;;;3.78;2.33;;;;;;;31.81;27.99;98585.50;6288058;22;19999;-92
2023/08/02 12:01:51;;;;;;;4.93;2.90;;;;;;;31.93;28.59;98604.31;6274458;22;19994;-96
2023/08/02 12:06:52;;;;;;;3.47;2.50;;;;;;;32.01;28.89;98591.81;6287604;22;20024;-96
2023/08/02 12:09:43;;;;;;;3.65;2.78;;;;;;;32.13;28.52;98572.88;6217343;22;20003;-95
2023/08/02 12:24:22;;;;;;;3.13;2.55;;;;;;;32.54;28.48;98583.44;6301884;22;20031;-95
2023/08/02 12:27:24;;;;;;;6.90;2.90;;;;;;;32.51;28.47;98556.41;6196424;22;20038;-96
2023/08/02 12:30:05;;;;;;;7.75;3.28;;;;;;;32.46;29.16;98553.34;6242559;22;20011;-92
2023/08/02 12:32:31;;;;;;;;;;;;;;;32.72;29.09;98573.81;6259365;22;20438;-93
2023/08/02 12:35:04;;;;;;;3.92;2.78;;;;;;;32.61;28.88;98555.38;6262221;22;19911;-93
2023/08/02 12:37:29;;;;;;;4.93;3.05;;;;;;;32.63;29.41;98534.66;6265549;22;19999;-93
2023/08/02 12:39:58;;;;;;;3.25;2.83;;;;;;;32.63;29.56;98541.00;6243834;22;20078;-91
2023/08/02 12:42:24;;;;;;;7.00;2.72;;;;;;;32.79;28.96;98524.22;6240021;22;20006;-90
2023/08/02 12:45:08;;;;;;;5.28;4.45;;;;;;;32.92;29.32;98543.03;6237569;22;20418;-93
2023/08/02 12:48:00;;;;;;;4.20;3.20;;;;;;;33.06;29.05;98559.38;6237037;22;20011;-91
2023/08/02 12:50:26;;;;;;;6.72;3.50;;;;;;;32.98;28.84;98536.47;6261115;22;19995;-91
2023/08/02 12:53:21;;;;;;;5.45;4.13;;;;;;;33.21;29.15;98537.44;6261110;22;20006;-92
2023/08/02 12:55:55;;;;;;;5.82;3.38;;;;;;;33.44;28.85;98535.59;6265880;22;20003;-94
2023/08/02 12:58:26;;;;;;;7.65;3.55;;;;;;;33.78;28.64;98546.13;6265856;22;20061;-93
2023/08/02 13:00:58;;;;;;;4.32;2.97;;;;;;;33.82;27.52;98546.81;6233580;22;19999;-89
2023/08/02 13:03:23;;;;;;;4.78;3.13;;;;;;;33.84;28.36;98549.16;6262823;22;20019;-91
2023/08/02 13:05:52;;;;;;;5.13;3.38;;;;;;;33.88;27.54;98547.03;6236736;22;19999;-91
2023/08/02 13:08:17;;;;;;;4.47;3.08;;;;;;;33.78;27.68;98543.34;6236888;22;20437;-91
2023/08/02 13:10:56;;;;;;;3.75;3.13;;;;;;;33.77;27.56;98562.13;6237646;22;20006;-93
2023/08/02 13:13:22;;;;;;;3.20;2.88;;;;;;;33.60;28.07;98543.88;6241948;22;20003;-91
2023/08/02 13:15:47;;;;;;;3.92;3.20;;;;;;;33.61;28.06;98563.00;6261984;22;20014;-90
2023/08/02 13:18:13;;;;;;;4.88;3.22;;;;;;;33.37;28.55;98548.53;6285633;22;20070;-92
2023/08/02 13:20:45;;;;;;;5.00;3.45;;;;;;;33.57;28.47;98545.53;6262280;22;20017;-88
2023/08/02 13:23:11;;;;;;;5.22;3.10;;;;;;;33.70;27.96;98544.78;6234908;22;20059;-85
2023/08/02 13:25:37;;;;;;;4.40;3.53;;;;;;;33.99;28.19;98551.06;6232173;22;20003;-87
2023/08/02 13:28:03;;;;;;;3.75;3.08;;;;;;;34.18;27.37;98560.47;6231022;22;20018;-86
2023/08/02 13:30:31;;;;;;;5.60;3.10;;;;;;;34.19;27.58;98562.00;6206206;22;20009;-87
2023/08/02 13:33:00;;;;;;;4.15;2.97;;;;;;;34.45;27.46;98573.16;6233355;22;20347;-87
2023/08/02 13:35:40;;;;;;;9.15;3.22;;;;;;;34.33;27.20;98543.22;6207359;23;20001;-87
2023/08/02 13:38:12;;;;;;;6.32;3.35;;;;;;;34.51;26.88;98562.97;6209647;22;20001;-87
2023/08/02 13:40:38;;;;;;;7.60;3.50;;;;;;;34.47;27.33;98550.31;6258425;22;20033;-90
2023/08/02 13:43:06;;;;;;;4.53;3.08;;;;;;;34.66;26.67;98543.72;6207109;22;20010;-92
2023/08/02 13:45:31;;;;;;;3.55;2.88;;;;;;;34.67;26.21;98556.44;6235326;22;20005;-91
2023/08/02 13:47:57;;;;;;;3.75;2.85;;;;;;;34.81;26.36;98555.19;6205375;22;20009;-86
2023/08/02 13:50:28;;;;;;;7.28;3.00;;;;;;;34.96;25.67;98542.22;6230918;23;19994;-89
2023/08/02 13:52:53;;;;;;;4.18;3.20;;;;;;;35.08;25.41;98537.03;6203886;22;20006;-89
2023/08/02 13:55:19;;;;;;;12.10;5.63;;;;;;;35.22;26.02;98553.34;6234173;23;20017;-89
2023/08/02 13:57:44;;;;;;;7.15;3.22;;;;;;;35.15;25.86;98553.59;6233270;22;19997;-88
2023/08/02 14:00:13;;;;;;;4.40;3.17;;;;;;;35.29;25.55;98552.28;6204900;22;20010;-89
2023/08/02 14:02:39;;;;;;;4.13;3.10;;;;;;;35.40;25.86;98549.84;6206778;22;19994;-89
2023/08/02 14:05:04;;;;;;;4.90;3.17;;;;;;;35.35;25.14;98550.47;6231068;23;19994;-88